createdAt,value
2024-03-28T00:00:33.946Z,71.03
2024-03-28T00:01:33.919Z,71.11
2024-03-28T00:02:33.913Z,71.15
2024-03-28T00:03:33.926Z,71.23
2024-03-28T00:04:33.902Z,71.30
2024-03-28T00:05:34.160Z,71.23
2024-03-28T00:06:33.883Z,71.20
2024-03-28T00:07:34.015Z,71.11
2024-03-28T00:08:33.844Z,71.15
2024-03-28T00:09:33.875Z,71.27
2024-03-28T00:10:33.862Z,71.37
2024-03-28T00:11:33.806Z,71.38
2024-03-28T00:12:33.791Z,71.43
2024-03-28T00:13:33.783Z,71.45
2024-03-28T00:14:33.799Z,71.39
2024-03-28T00:15:33.796Z,71.54
2024-03-28T00:16:33.758Z,71.63
2024-03-28T00:17:33.866Z,71.63
2024-03-28T00:18:33.738Z,71.73
2024-03-28T00:19:36.251Z,71.85
2024-03-28T00:20:33.736Z,71.82
2024-03-28T00:21:33.700Z,71.77
2024-03-28T00:22:33.688Z,71.77
2024-03-28T00:23:33.675Z,71.70
2024-03-28T00:24:33.699Z,71.72
2024-03-28T00:25:33.678Z,71.78
2024-03-28T00:26:33.664Z,71.70
2024-03-28T00:27:33.638Z,71.63
2024-03-28T00:28:33.643Z,71.79
2024-03-28T00:29:33.607Z,71.93
2024-03-28T00:30:33.625Z,71.91
2024-03-28T00:31:33.595Z,71.93
2024-03-28T00:32:33.579Z,72.01
2024-03-28T00:33:33.563Z,72.00
2024-03-28T00:34:33.576Z,72.00
2024-03-28T00:35:33.563Z,72.09
2024-03-28T00:36:33.534Z,72.11
2024-03-28T00:37:33.521Z,72.04
2024-03-28T00:38:33.516Z,72.05
2024-03-28T00:39:33.511Z,71.99
2024-03-28T00:40:33.535Z,71.93
2024-03-28T00:41:33.474Z,71.99
2024-03-28T00:42:33.476Z,71.99
2024-03-28T00:43:33.458Z,71.97
2024-03-28T00:44:33.477Z,71.97
2024-03-28T00:45:33.449Z,71.89
2024-03-28T00:46:33.425Z,71.92
2024-03-28T00:47:33.408Z,71.98
2024-03-28T00:48:33.452Z,72.06
2024-03-28T00:49:33.393Z,72.10
2024-03-28T00:50:33.394Z,72.12
2024-03-28T00:51:33.370Z,72.16
2024-03-28T00:52:33.352Z,72.21
2024-03-28T00:53:33.349Z,72.32
2024-03-28T00:54:33.353Z,72.32
2024-03-28T00:55:33.352Z,72.36
2024-03-28T00:56:33.323Z,72.41
2024-03-28T00:57:33.319Z,72.48
2024-03-28T00:58:33.294Z,72.58
2024-03-28T00:59:33.320Z,72.65
2024-03-28T01:00:33.316Z,72.71
2024-03-28T01:01:33.271Z,72.79
2024-03-28T01:02:33.257Z,72.83
2024-03-28T01:03:33.230Z,72.80
2024-03-28T01:04:33.247Z,72.83
2024-03-28T01:05:33.231Z,72.87
2024-03-28T01:06:33.206Z,73.01
2024-03-28T01:07:33.188Z,73.04
2024-03-28T01:08:33.192Z,73.17
2024-03-28T01:09:33.184Z,73.26
2024-03-28T01:10:33.166Z,73.51
2024-03-28T01:11:33.201Z,73.64
2024-03-28T01:12:33.143Z,73.84
2024-03-28T01:13:33.127Z,73.90
2024-03-28T01:14:33.111Z,73.99
2024-03-28T01:15:33.103Z,74.06
2024-03-28T01:16:33.122Z,73.92
2024-03-28T01:17:33.108Z,73.76
2024-03-28T01:18:33.064Z,73.57
2024-03-28T01:19:33.063Z,73.37
2024-03-28T01:20:33.052Z,73.25
2024-03-28T01:21:33.078Z,73.30
2024-03-28T01:22:33.033Z,73.38
2024-03-28T01:23:33.029Z,73.43
2024-03-28T01:24:33.022Z,73.47
2024-03-28T01:25:32.992Z,73.44
2024-03-28T01:26:33.029Z,73.35
2024-03-28T01:27:32.983Z,73.28
2024-03-28T01:28:32.964Z,73.09
2024-03-28T01:29:32.951Z,72.92
2024-03-28T01:30:32.965Z,72.71
2024-03-28T01:31:32.925Z,72.67
2024-03-28T01:32:32.961Z,72.68
2024-03-28T01:33:32.901Z,72.56
2024-03-28T01:34:32.955Z,72.44
2024-03-28T01:35:32.909Z,72.44
2024-03-28T01:36:32.926Z,72.41
2024-03-28T01:37:32.864Z,72.45
2024-03-28T01:38:32.864Z,72.44
2024-03-28T01:39:32.916Z,72.52
2024-03-28T01:40:32.900Z,72.49
2024-03-28T01:41:32.812Z,72.48
2024-03-28T01:42:32.897Z,72.44
2024-03-28T01:43:32.834Z,72.32
2024-03-28T01:44:32.823Z,72.39
2024-03-28T01:45:32.798Z,72.47
2024-03-28T01:46:43.187Z,72.49
2024-03-28T01:47:48.328Z,72.53
2024-03-28T01:48:33.754Z,72.51
2024-03-28T01:49:32.742Z,72.34
2024-03-28T01:50:32.716Z,72.18
2024-03-28T01:51:32.759Z,72.22
2024-03-28T01:52:32.769Z,72.43
2024-03-28T01:53:32.744Z,72.65
2024-03-28T01:54:32.717Z,72.77
2024-03-28T01:55:32.778Z,72.85
2024-03-28T01:56:32.732Z,72.92
2024-03-28T01:57:32.807Z,73.03
2024-03-28T01:58:32.639Z,73.19
2024-03-28T01:59:32.616Z,73.38
2024-03-28T02:00:32.639Z,73.47
2024-03-28T02:01:32.612Z,73.28
2024-03-28T02:02:32.621Z,72.93
2024-03-28T02:03:32.592Z,72.71
2024-03-28T02:04:32.571Z,72.45
2024-03-28T02:05:32.555Z,72.15
2024-03-28T02:06:32.556Z,72.24
2024-03-28T02:07:32.556Z,72.53
2024-03-28T02:08:32.554Z,72.77
2024-03-28T02:09:32.542Z,73.21
2024-03-28T02:10:32.512Z,73.50
2024-03-28T02:11:32.499Z,73.94
2024-03-28T02:12:32.492Z,74.30
2024-03-28T02:13:32.498Z,74.70
2024-03-28T02:14:32.466Z,74.80
2024-03-28T02:15:32.474Z,75.18
2024-03-28T02:16:32.466Z,75.40
2024-03-28T02:17:32.441Z,75.54
2024-03-28T02:18:32.455Z,75.73
2024-03-28T02:19:32.433Z,75.98
2024-03-28T02:20:32.444Z,76.16
2024-03-28T02:21:32.418Z,76.17
2024-03-28T02:22:32.376Z,75.82
2024-03-28T02:23:32.379Z,75.39
2024-03-28T02:24:32.381Z,75.27
2024-03-28T02:25:32.397Z,75.37
2024-03-28T02:26:32.337Z,75.52
2024-03-28T02:27:32.328Z,75.36
2024-03-28T02:28:32.328Z,75.32
2024-03-28T02:29:32.306Z,75.32
2024-03-28T02:30:32.343Z,75.28
2024-03-28T02:31:32.270Z,75.35
2024-03-28T02:32:32.275Z,75.52
2024-03-28T02:33:32.280Z,75.68
2024-03-28T02:34:32.283Z,75.77
2024-03-28T02:35:32.245Z,75.63
2024-03-28T02:36:32.223Z,75.59
2024-03-28T02:37:32.204Z,75.48
2024-03-28T02:38:32.296Z,75.50
2024-03-28T02:39:32.190Z,75.66
2024-03-28T02:40:32.211Z,75.83
2024-03-28T02:41:32.169Z,75.85
2024-03-28T02:42:32.159Z,75.76
2024-03-28T02:43:32.165Z,75.56
2024-03-28T02:44:32.132Z,75.40
2024-03-28T02:45:32.142Z,75.27
2024-03-28T02:46:32.114Z,75.21
2024-03-28T02:47:32.109Z,75.08
2024-03-28T02:48:32.121Z,75.05
2024-03-28T02:49:32.091Z,75.16
2024-03-28T02:50:32.062Z,75.22
2024-03-28T02:51:32.071Z,75.40
2024-03-28T02:52:32.041Z,75.52
2024-03-28T02:53:32.074Z,75.66
2024-03-28T02:54:32.037Z,75.64
2024-03-28T02:55:32.040Z,75.41
2024-03-28T02:56:32.036Z,75.44
2024-03-28T02:57:31.997Z,75.56
2024-03-28T02:58:32.006Z,75.60
2024-03-28T02:59:31.966Z,75.65
2024-03-28T03:00:31.993Z,75.75
2024-03-28T03:01:31.964Z,75.91
2024-03-28T03:02:31.933Z,75.82
2024-03-28T03:03:31.937Z,75.54
2024-03-28T03:04:31.912Z,75.37
2024-03-28T03:05:31.906Z,75.42
2024-03-28T03:06:31.945Z,75.38
2024-03-28T03:07:31.909Z,75.54
2024-03-28T03:08:31.876Z,75.69
2024-03-28T03:09:31.875Z,75.76
2024-03-28T03:10:31.874Z,75.70
2024-03-28T03:11:31.857Z,75.67
2024-03-28T03:12:31.839Z,75.62
2024-03-28T03:13:31.819Z,75.59
2024-03-28T03:14:31.825Z,75.48
2024-03-28T03:15:31.806Z,75.53
2024-03-28T03:16:31.810Z,75.61
2024-03-28T03:17:31.772Z,75.87
2024-03-28T03:18:31.762Z,75.88
2024-03-28T03:19:31.747Z,75.62
2024-03-28T03:20:31.762Z,75.50
2024-03-28T03:21:31.743Z,75.58
2024-03-28T03:22:31.714Z,75.56
2024-03-28T03:23:31.725Z,75.52
2024-03-28T03:24:31.706Z,75.56
2024-03-28T03:25:31.692Z,75.67
2024-03-28T03:26:31.703Z,75.70
2024-03-28T03:27:31.670Z,75.76
2024-03-28T03:28:31.660Z,75.71
2024-03-28T03:29:31.674Z,75.79
2024-03-28T03:30:31.634Z,75.87
2024-03-28T03:31:31.620Z,76.01
2024-03-28T03:32:31.660Z,76.10
2024-03-28T03:33:31.603Z,76.15
2024-03-28T03:34:31.604Z,76.04
2024-03-28T03:35:31.569Z,75.93
2024-03-28T03:36:31.564Z,75.71
2024-03-28T03:37:31.606Z,75.53
2024-03-28T03:38:31.594Z,75.41
2024-03-28T03:39:31.579Z,75.42
2024-03-28T03:40:31.517Z,75.36
2024-03-28T03:41:31.504Z,75.39
2024-03-28T03:42:31.504Z,75.49
2024-03-28T03:43:31.517Z,75.52
2024-03-28T03:44:31.474Z,75.62
2024-03-28T03:45:31.497Z,75.60
2024-03-28T03:46:31.444Z,75.56
2024-03-28T03:47:31.476Z,75.56
2024-03-28T03:48:31.429Z,75.57
2024-03-28T03:49:31.432Z,75.68
2024-03-28T03:50:31.435Z,75.79
2024-03-28T03:51:31.404Z,75.93
2024-03-28T03:52:31.404Z,76.07
2024-03-28T03:53:31.386Z,76.08
2024-03-28T03:54:31.392Z,76.11
2024-03-28T03:55:31.357Z,76.12
2024-03-28T03:56:31.345Z,76.07
2024-03-28T03:57:31.378Z,75.99
2024-03-28T03:58:31.329Z,75.96
2024-03-28T03:59:31.311Z,76.02
2024-03-28T04:00:31.324Z,76.02
2024-03-28T04:01:31.290Z,76.02
2024-03-28T04:02:31.290Z,76.06
2024-03-28T04:03:31.303Z,76.08
2024-03-28T04:04:31.260Z,76.16
2024-03-28T04:05:31.280Z,76.00
2024-03-28T04:06:31.240Z,76.05
2024-03-28T04:07:31.225Z,76.26
2024-03-28T04:08:31.209Z,76.31
2024-03-28T04:09:31.247Z,76.24
2024-03-28T04:10:31.195Z,76.22
2024-03-28T04:11:31.175Z,76.18
2024-03-28T04:12:31.187Z,76.10
2024-03-28T04:13:31.149Z,76.06
2024-03-28T04:14:31.198Z,75.96
2024-03-28T04:15:31.149Z,75.85
2024-03-28T04:16:31.139Z,75.77
2024-03-28T04:17:31.155Z,75.80
2024-03-28T04:18:31.182Z,75.81
2024-03-28T04:19:31.095Z,75.91
2024-03-28T04:20:31.127Z,76.01
2024-03-28T04:21:31.070Z,75.95
2024-03-28T04:22:31.057Z,75.84
2024-03-28T04:23:31.061Z,75.79
2024-03-28T04:24:31.062Z,75.73
2024-03-28T04:25:31.054Z,75.74
2024-03-28T04:26:31.011Z,75.70
2024-03-28T04:27:31.004Z,75.55
2024-03-28T04:28:30.997Z,75.47
2024-03-28T04:29:34.917Z,75.35
2024-03-28T04:30:30.979Z,75.24
2024-03-28T04:31:30.975Z,75.09
2024-03-28T04:32:30.954Z,74.99
2024-03-28T04:33:30.939Z,74.88
2024-03-28T04:34:30.962Z,74.74
2024-03-28T04:35:30.935Z,74.63
2024-03-28T04:36:30.916Z,74.54
2024-03-28T04:37:30.896Z,74.48
2024-03-28T04:38:30.901Z,74.53
2024-03-28T04:39:30.918Z,74.63
2024-03-28T04:40:30.859Z,74.76
2024-03-28T04:41:30.851Z,74.92
2024-03-28T04:42:30.843Z,75.09
2024-03-28T04:43:30.829Z,75.26
2024-03-28T04:44:30.890Z,75.34
2024-03-28T04:45:30.824Z,75.35
2024-03-28T04:46:30.826Z,75.31
2024-03-28T04:47:30.833Z,75.22
2024-03-28T04:48:30.777Z,75.18
2024-03-28T04:49:33.065Z,75.14
2024-03-28T04:50:30.778Z,75.06
2024-03-28T04:51:30.790Z,75.00
2024-03-28T04:52:30.771Z,74.93
2024-03-28T04:53:30.799Z,74.86
2024-03-28T04:54:30.709Z,74.80
2024-03-28T04:55:30.714Z,74.77
2024-03-28T04:56:30.754Z,74.69
2024-03-28T04:57:30.827Z,74.68
2024-03-28T04:58:30.657Z,74.70
2024-03-28T04:59:30.657Z,74.84
2024-03-28T05:00:30.668Z,74.93
2024-03-28T05:01:30.668Z,74.99
2024-03-28T05:02:30.712Z,74.93
2024-03-28T05:03:30.612Z,74.89
2024-03-28T05:04:30.630Z,74.90
2024-03-28T05:05:30.599Z,74.86
2024-03-28T05:06:30.649Z,74.84
2024-03-28T05:07:30.642Z,74.83
2024-03-28T05:08:30.578Z,74.84
2024-03-28T05:09:30.549Z,74.75
2024-03-28T05:10:30.541Z,74.71
2024-03-28T05:11:30.555Z,74.74
2024-03-28T05:12:30.518Z,74.80
2024-03-28T05:13:30.505Z,74.86
2024-03-28T05:14:30.515Z,74.91
2024-03-28T05:15:30.550Z,74.84
2024-03-28T05:16:30.465Z,74.73
2024-03-28T05:17:30.463Z,74.70
2024-03-28T05:18:30.484Z,74.73
2024-03-28T05:19:30.448Z,74.89
2024-03-28T05:20:30.478Z,74.88
2024-03-28T05:21:30.411Z,75.05
2024-03-28T05:22:30.418Z,75.21
2024-03-28T05:23:30.411Z,75.37
2024-03-28T05:24:30.378Z,75.47
2024-03-28T05:25:30.397Z,75.52
2024-03-28T05:26:30.390Z,75.54
2024-03-28T05:27:30.351Z,75.61
2024-03-28T05:28:30.341Z,75.59
2024-03-28T05:29:30.338Z,75.58
2024-03-28T05:30:30.377Z,75.52
2024-03-28T05:31:30.359Z,75.38
2024-03-28T05:32:30.355Z,75.34
2024-03-28T05:33:30.287Z,75.29
2024-03-28T05:34:30.283Z,75.18
2024-03-28T05:35:30.273Z,75.11
2024-03-28T05:36:30.266Z,75.12
2024-03-28T05:37:30.242Z,75.15
2024-03-28T05:38:30.231Z,75.29
2024-03-28T05:39:30.225Z,75.46
2024-03-28T05:40:30.218Z,75.48
2024-03-28T05:41:30.237Z,75.52
2024-03-28T05:42:30.182Z,75.46
2024-03-28T05:43:30.177Z,75.46
2024-03-28T05:44:30.172Z,75.43
2024-03-28T05:45:30.167Z,75.54
2024-03-28T05:46:30.145Z,75.69
2024-03-28T05:47:30.174Z,75.83
2024-03-28T05:48:30.115Z,75.86
2024-03-28T05:49:30.157Z,75.82
2024-03-28T05:50:30.098Z,75.85
2024-03-28T05:51:30.092Z,75.87
2024-03-28T05:52:30.107Z,75.85
2024-03-28T05:53:30.088Z,75.79
2024-03-28T05:54:30.067Z,75.69
2024-03-28T05:55:30.038Z,75.56
2024-03-28T05:56:30.053Z,75.46
2024-03-28T05:57:30.041Z,75.32
2024-03-28T05:58:30.036Z,75.23
2024-03-28T05:59:29.992Z,75.22
2024-03-28T06:00:30.033Z,75.11
2024-03-28T06:01:29.994Z,75.04
2024-03-28T06:02:30.004Z,75.00
2024-03-28T06:03:29.982Z,74.99
2024-03-28T06:04:29.957Z,74.94
2024-03-28T06:05:29.943Z,74.86
2024-03-28T06:06:29.981Z,74.83
2024-03-28T06:07:29.926Z,74.85
2024-03-28T06:08:29.907Z,74.76
2024-03-28T06:09:29.905Z,74.62
2024-03-28T06:10:29.898Z,74.51
2024-03-28T06:11:29.918Z,74.41
2024-03-28T06:12:29.872Z,74.38
2024-03-28T06:13:29.857Z,74.28
2024-03-28T06:14:29.851Z,74.18
2024-03-28T06:15:29.839Z,74.31
2024-03-28T06:16:29.848Z,74.35
2024-03-28T06:17:29.846Z,74.63
2024-03-28T06:18:29.833Z,74.67
2024-03-28T06:19:29.790Z,74.91
2024-03-28T06:20:29.776Z,75.11
2024-03-28T06:21:29.771Z,75.12
2024-03-28T06:22:29.817Z,75.09
2024-03-28T06:23:29.778Z,75.07
2024-03-28T06:24:29.737Z,75.14
2024-03-28T06:25:29.717Z,74.98
2024-03-28T06:26:29.714Z,74.98
2024-03-28T06:27:29.713Z,74.82
2024-03-28T06:28:29.710Z,74.33
2024-03-28T06:29:29.714Z,74.07
2024-03-28T06:30:29.692Z,73.89
2024-03-28T06:31:29.719Z,74.03
2024-03-28T06:32:29.660Z,74.05
2024-03-28T06:33:29.683Z,73.84
2024-03-28T06:34:29.680Z,73.33
2024-03-28T06:35:30.353Z,73.32
2024-03-28T06:36:29.603Z,73.30
2024-03-28T06:37:29.630Z,73.26
2024-03-28T06:38:31.573Z,73.02
2024-03-28T06:39:29.808Z,72.90
2024-03-28T06:40:31.865Z,72.81
2024-03-28T06:41:29.705Z,72.39
2024-03-28T06:42:29.591Z,72.10
2024-03-28T06:43:29.580Z,71.91
2024-03-28T06:44:29.788Z,71.93
2024-03-28T06:45:29.505Z,71.95
2024-03-28T06:46:29.511Z,72.01
2024-03-28T06:47:29.488Z,72.06
2024-03-28T06:48:29.494Z,71.99
2024-03-28T06:49:29.459Z,72.03
2024-03-28T06:50:29.445Z,72.12
2024-03-28T06:51:29.447Z,72.22
2024-03-28T06:52:29.446Z,72.11
2024-03-28T06:53:29.406Z,71.91
2024-03-28T06:54:29.415Z,71.62
2024-03-28T06:55:29.421Z,71.53
2024-03-28T06:56:29.392Z,71.22
2024-03-28T06:57:29.384Z,71.22
2024-03-28T06:58:29.391Z,71.18
2024-03-28T06:59:29.365Z,70.96
2024-03-28T07:00:29.340Z,70.80
2024-03-28T07:01:29.350Z,70.56
2024-03-28T07:02:29.344Z,70.40
2024-03-28T07:03:29.303Z,70.57
2024-03-28T07:04:29.370Z,70.49
2024-03-28T07:05:29.275Z,70.43
2024-03-28T07:06:29.265Z,70.26
2024-03-28T07:07:29.295Z,70.33
2024-03-28T07:08:29.240Z,70.48
2024-03-28T07:09:29.272Z,70.47
2024-03-28T07:10:29.262Z,69.96
2024-03-28T07:11:29.215Z,70.03
2024-03-28T07:12:29.198Z,70.07
2024-03-28T07:13:29.214Z,69.82
2024-03-28T07:14:29.229Z,69.28
2024-03-28T07:15:29.168Z,69.28
2024-03-28T07:16:29.209Z,69.38
2024-03-28T07:17:29.182Z,69.16
2024-03-28T07:18:29.155Z,69.16
2024-03-28T07:19:29.168Z,68.94
2024-03-28T07:20:29.174Z,68.78
2024-03-28T07:21:29.247Z,68.54
2024-03-28T07:22:29.608Z,68.35
2024-03-28T07:23:29.273Z,68.45
2024-03-28T07:24:39.300Z,68.62
2024-03-28T07:25:29.462Z,68.49
2024-03-28T07:26:36.392Z,68.33
2024-03-28T07:27:30.643Z,68.43
2024-03-28T07:28:29.258Z,68.57
2024-03-28T07:29:29.274Z,68.57
2024-03-28T07:30:29.045Z,68.70
2024-03-28T07:31:29.087Z,68.83
2024-03-28T07:32:29.079Z,69.38
2024-03-28T07:33:28.983Z,69.68
2024-03-28T07:34:29.061Z,69.53
2024-03-28T07:35:29.180Z,69.50
2024-03-28T07:36:28.992Z,69.14
2024-03-28T07:37:29.033Z,68.64
2024-03-28T07:38:37.059Z,68.44
2024-03-28T07:39:28.917Z,68.38
2024-03-28T07:40:28.916Z,68.24
2024-03-28T07:41:28.889Z,68.31
2024-03-28T07:42:28.866Z,68.21
2024-03-28T07:43:28.885Z,68.30
2024-03-28T07:44:28.919Z,68.09
2024-03-28T07:45:28.837Z,68.29
2024-03-28T07:46:28.893Z,68.44
2024-03-28T07:47:28.852Z,68.24
2024-03-28T07:48:28.814Z,68.48
2024-03-28T07:49:28.836Z,68.27
2024-03-28T07:50:28.819Z,68.21
2024-03-28T07:51:28.775Z,68.39
2024-03-28T07:52:28.862Z,68.21
2024-03-28T07:53:28.756Z,68.20
2024-03-28T07:54:28.760Z,68.20
2024-03-28T07:55:28.753Z,67.95
2024-03-28T07:56:28.735Z,67.86
2024-03-28T07:57:28.718Z,67.83
2024-03-28T07:58:28.740Z,67.97
2024-03-28T07:59:28.726Z,67.91
2024-03-28T08:00:28.687Z,67.75
2024-03-28T08:01:28.695Z,67.81
2024-03-28T08:02:28.849Z,67.67
2024-03-28T08:03:28.634Z,67.72
2024-03-28T08:04:28.662Z,67.63
2024-03-28T08:05:28.663Z,67.32
2024-03-28T08:06:28.607Z,67.54
2024-03-28T08:07:28.679Z,66.94
2024-03-28T08:08:28.614Z,66.56
2024-03-28T08:09:28.728Z,66.48
2024-03-28T08:10:28.580Z,66.57
2024-03-28T08:11:28.573Z,66.20
2024-03-28T08:12:28.542Z,65.72
2024-03-28T08:13:28.581Z,65.83
2024-03-28T08:14:28.533Z,65.67
2024-03-28T08:15:28.523Z,65.41
2024-03-28T08:16:28.568Z,65.67
2024-03-28T08:17:28.523Z,65.59
2024-03-28T08:18:28.610Z,65.20
2024-03-28T08:19:28.492Z,64.90
2024-03-28T08:20:28.456Z,64.96
2024-03-28T08:21:28.478Z,64.64
2024-03-28T08:22:28.449Z,65.01
2024-03-28T08:23:28.427Z,65.12
2024-03-28T08:24:28.462Z,65.09
2024-03-28T08:25:28.433Z,65.07
2024-03-28T08:26:28.389Z,64.98
2024-03-28T08:27:28.388Z,64.93
2024-03-28T08:28:28.453Z,64.94
2024-03-28T08:29:28.441Z,65.07
2024-03-28T08:30:28.844Z,65.76
2024-03-28T08:31:28.376Z,65.64
2024-03-28T08:32:28.355Z,67.12
2024-03-28T08:33:28.326Z,65.69
2024-03-28T08:34:28.364Z,65.48
2024-03-28T08:35:28.458Z,65.47
2024-03-28T08:36:28.332Z,65.65
2024-03-28T08:37:28.292Z,65.39
2024-03-28T08:38:28.254Z,65.23
2024-03-28T08:39:28.277Z,64.09
2024-03-28T08:40:28.374Z,63.42
2024-03-28T08:41:28.246Z,64.08
2024-03-28T08:42:28.232Z,63.09
2024-03-28T08:43:28.298Z,62.08
2024-03-28T08:44:28.212Z,63.02
2024-03-28T08:45:28.187Z,63.25
2024-03-28T08:46:28.184Z,62.69
2024-03-28T08:47:28.278Z,62.62
2024-03-28T08:48:28.150Z,62.46
2024-03-28T08:49:28.244Z,61.35
2024-03-28T08:50:28.143Z,60.99
2024-03-28T08:51:28.161Z,61.01
2024-03-28T08:52:28.121Z,61.08
2024-03-28T08:53:28.094Z,61.31
2024-03-28T08:54:28.122Z,61.36
2024-03-28T08:55:28.131Z,61.13
2024-03-28T08:56:28.830Z,60.87
2024-03-28T08:57:28.058Z,60.91
2024-03-28T08:58:28.068Z,60.81
2024-03-28T08:59:28.030Z,60.40
2024-03-28T09:00:28.038Z,60.20
2024-03-28T09:01:28.021Z,60.06
2024-03-28T09:02:27.992Z,60.18
2024-03-28T09:03:28.009Z,60.41
2024-03-28T09:04:27.997Z,60.08
2024-03-28T09:05:28.016Z,60.29
2024-03-28T09:06:27.968Z,60.62
2024-03-28T09:07:27.986Z,60.71
2024-03-28T09:08:27.996Z,60.45
2024-03-28T09:09:27.924Z,60.06
2024-03-28T09:10:27.947Z,60.06
2024-03-28T09:11:27.904Z,60.12
2024-03-28T09:12:27.928Z,60.21
2024-03-28T09:13:27.890Z,60.12
2024-03-28T09:14:27.864Z,59.53
2024-03-28T09:15:27.868Z,59.55
2024-03-28T09:16:27.927Z,59.64
2024-03-28T09:17:27.854Z,59.08
2024-03-28T09:18:27.866Z,58.68
2024-03-28T09:19:27.860Z,58.19
2024-03-28T09:20:27.822Z,57.61
2024-03-28T09:21:27.789Z,56.98
2024-03-28T09:22:27.820Z,56.72
2024-03-28T09:23:27.763Z,56.77
2024-03-28T09:24:27.753Z,56.96
2024-03-28T09:25:27.826Z,56.03
2024-03-28T09:26:27.766Z,56.47
2024-03-28T09:27:27.741Z,56.92
2024-03-28T09:28:27.718Z,56.96
2024-03-28T09:29:27.769Z,56.30
2024-03-28T09:30:27.684Z,56.04
2024-03-28T09:31:27.720Z,55.90
2024-03-28T09:32:27.746Z,55.24
2024-03-28T09:33:27.663Z,54.59
2024-03-28T09:34:27.664Z,53.32
2024-03-28T09:35:27.656Z,53.15
2024-03-28T09:36:27.627Z,53.44
2024-03-28T09:37:27.656Z,53.84
2024-03-28T09:38:27.597Z,53.72
2024-03-28T09:39:27.582Z,53.46
2024-03-28T09:40:27.620Z,53.77
2024-03-28T09:41:27.573Z,54.16
2024-03-28T09:42:27.639Z,53.78
2024-03-28T09:43:27.590Z,53.96
2024-03-28T09:44:27.538Z,54.61
2024-03-28T09:45:27.559Z,55.03
2024-03-28T09:46:27.607Z,55.01
2024-03-28T09:47:27.551Z,54.74
2024-03-28T09:48:27.496Z,53.63
2024-03-28T09:49:27.500Z,54.05
2024-03-28T09:50:27.473Z,53.92
2024-03-28T09:51:27.463Z,54.25
2024-03-28T09:52:27.484Z,54.16
2024-03-28T09:53:27.450Z,54.68
2024-03-28T09:54:27.445Z,53.29
2024-03-28T09:55:27.449Z,52.68
2024-03-28T09:56:27.417Z,53.12
2024-03-28T09:57:27.431Z,53.55
2024-03-28T09:58:27.402Z,53.61
2024-03-28T09:59:27.369Z,53.71
2024-03-28T10:00:27.376Z,53.85
2024-03-28T10:01:27.353Z,53.09
2024-03-28T10:02:27.366Z,52.96
2024-03-28T10:03:27.361Z,52.48
2024-03-28T10:04:27.319Z,52.12
2024-03-28T10:05:27.374Z,51.50
2024-03-28T10:06:27.310Z,51.23
2024-03-28T10:07:27.304Z,51.18
2024-03-28T10:08:27.316Z,51.50
2024-03-28T10:09:27.274Z,51.50
2024-03-28T10:10:27.261Z,51.76
2024-03-28T10:11:27.239Z,52.16
2024-03-28T10:12:27.257Z,52.63
2024-03-28T10:13:27.219Z,53.23
2024-03-28T10:14:27.234Z,53.41
2024-03-28T10:15:27.210Z,52.94
2024-03-28T10:16:27.182Z,52.68
2024-03-28T10:17:27.248Z,53.15
2024-03-28T10:18:27.183Z,53.16
2024-03-28T10:19:27.197Z,53.38
2024-03-28T10:20:27.160Z,53.00
2024-03-28T10:21:27.138Z,53.09
2024-03-28T10:22:27.142Z,53.32
2024-03-28T10:23:27.110Z,53.50
2024-03-28T10:24:27.137Z,53.83
2024-03-28T10:25:27.105Z,54.05
2024-03-28T10:26:27.087Z,54.04
2024-03-28T10:27:27.591Z,53.90
2024-03-28T10:28:27.063Z,53.91
2024-03-28T10:29:27.039Z,54.04
2024-03-28T10:30:27.052Z,53.90
2024-03-28T10:31:27.019Z,53.31
2024-03-28T10:32:27.021Z,53.44
2024-03-28T10:33:27.045Z,53.35
2024-03-28T10:34:27.046Z,53.52
2024-03-28T10:35:26.980Z,53.39
2024-03-28T10:36:26.968Z,52.39
2024-03-28T10:37:29.884Z,52.59
2024-03-28T10:38:27.969Z,52.83
2024-03-28T10:39:26.976Z,53.15
2024-03-28T10:40:26.921Z,53.33
2024-03-28T10:41:26.917Z,53.17
2024-03-28T10:42:26.914Z,53.41
2024-03-28T10:43:26.908Z,53.62
2024-03-28T10:44:26.955Z,53.35
2024-03-28T10:45:26.899Z,53.49
2024-03-28T10:46:26.860Z,53.53
2024-03-28T10:47:27.777Z,53.33
2024-03-28T10:48:26.837Z,53.01
2024-03-28T10:49:26.832Z,52.58
2024-03-28T10:50:27.183Z,52.22
2024-03-28T10:51:26.815Z,52.28
2024-03-28T10:52:26.797Z,52.22
2024-03-28T10:53:26.798Z,51.90
2024-03-28T10:54:26.777Z,51.75
2024-03-28T10:55:26.783Z,51.89
2024-03-28T10:56:26.739Z,52.22
2024-03-28T10:57:26.754Z,52.04
2024-03-28T10:58:26.729Z,51.64
2024-03-28T10:59:26.729Z,51.62
2024-03-28T11:00:26.724Z,52.13
2024-03-28T11:01:26.712Z,52.52
2024-03-28T11:02:26.692Z,51.87
2024-03-28T11:03:26.702Z,51.86
2024-03-28T11:04:26.777Z,52.01
2024-03-28T11:05:26.682Z,52.07
2024-03-28T11:06:26.649Z,52.13
2024-03-28T11:07:26.640Z,52.50
2024-03-28T11:08:26.643Z,52.52
2024-03-28T11:09:26.611Z,52.70
2024-03-28T11:10:26.665Z,52.81
2024-03-28T11:11:26.608Z,52.82
2024-03-28T11:12:26.590Z,52.79
2024-03-28T11:13:27.651Z,52.81
2024-03-28T11:14:26.576Z,52.82
2024-03-28T11:17:10.401Z,52.17
2024-03-28T11:18:10.379Z,52.03
2024-03-28T11:19:10.395Z,51.53
2024-03-28T11:20:10.362Z,51.09
2024-03-28T11:21:10.347Z,50.80
2024-03-28T11:22:10.360Z,50.78
2024-03-28T11:23:10.433Z,50.96
2024-03-28T11:24:10.359Z,51.20
2024-03-28T11:25:10.319Z,51.22
2024-03-28T11:26:10.309Z,51.20
2024-03-28T11:27:10.351Z,51.50
2024-03-28T11:28:10.273Z,51.75
2024-03-28T11:29:10.292Z,51.79
2024-03-28T11:30:10.425Z,52.07
2024-03-28T11:31:10.232Z,52.43
2024-03-28T11:32:10.232Z,52.31
2024-03-28T11:33:10.234Z,51.94
2024-03-28T11:34:10.227Z,51.98
2024-03-28T11:35:10.233Z,52.13
2024-03-28T11:36:10.197Z,52.18
2024-03-28T11:37:10.194Z,52.39
2024-03-28T11:38:10.176Z,52.41
2024-03-28T11:39:10.197Z,52.55
2024-03-28T11:40:10.146Z,52.40
2024-03-28T11:41:10.130Z,52.40
2024-03-28T11:42:10.169Z,52.63
2024-03-28T11:43:10.118Z,52.93
2024-03-28T11:44:10.239Z,53.16
2024-03-28T11:45:10.099Z,53.35
2024-03-28T11:46:10.098Z,53.73
2024-03-28T11:47:10.105Z,53.82
2024-03-28T11:48:10.054Z,53.76
2024-03-28T11:49:10.070Z,53.92
2024-03-28T11:50:12.482Z,54.13
2024-03-28T11:51:10.030Z,54.08
2024-03-28T11:52:10.018Z,54.20
2024-03-28T11:53:10.013Z,54.25
2024-03-28T11:54:10.006Z,54.45
2024-03-28T11:55:10.007Z,54.58
2024-03-28T11:56:09.982Z,54.74
2024-03-28T11:57:09.966Z,54.95
2024-03-28T11:58:09.950Z,54.97
2024-03-28T11:59:09.998Z,55.10
2024-03-28T12:00:09.933Z,55.28
2024-03-28T12:01:09.915Z,55.21
2024-03-28T12:02:09.915Z,55.26
2024-03-28T12:03:09.886Z,55.39
2024-03-28T12:04:09.936Z,55.39
2024-03-28T12:05:09.884Z,55.39
2024-03-28T12:06:09.869Z,55.41
2024-03-28T12:07:09.861Z,55.39
2024-03-28T12:08:09.838Z,55.63
2024-03-28T12:09:09.847Z,55.90
2024-03-28T12:10:09.885Z,56.21
2024-03-28T12:11:09.833Z,56.35
2024-03-28T12:12:10.055Z,56.37
2024-03-28T12:13:09.802Z,56.36
2024-03-28T12:14:11.845Z,56.42
2024-03-28T12:15:09.800Z,56.58
2024-03-28T12:16:09.764Z,56.50
2024-03-28T12:17:09.739Z,56.56
2024-03-28T12:18:09.748Z,56.73
2024-03-28T12:19:10.175Z,56.67
2024-03-28T12:20:11.874Z,56.78
2024-03-28T12:21:09.708Z,57.06
2024-03-28T12:22:09.965Z,57.10
2024-03-28T12:23:09.693Z,57.06
2024-03-28T12:24:09.698Z,57.05
2024-03-28T12:25:09.657Z,57.02
2024-03-28T12:26:09.639Z,57.06
2024-03-28T12:27:09.627Z,57.00
2024-03-28T12:28:09.615Z,56.98
2024-03-28T12:29:09.649Z,57.08
2024-03-28T12:30:09.591Z,57.16
2024-03-28T12:31:09.579Z,57.26
2024-03-28T12:32:09.567Z,57.32
2024-03-28T12:33:09.586Z,57.46
2024-03-28T12:34:09.544Z,57.24
2024-03-28T12:35:09.556Z,57.19
2024-03-28T12:36:10.761Z,57.09
2024-03-28T12:37:09.543Z,57.23
2024-03-28T12:38:09.504Z,57.31
2024-03-28T12:39:09.579Z,57.43
2024-03-28T12:40:09.485Z,57.42
2024-03-28T12:41:09.479Z,57.35
2024-03-28T12:42:09.658Z,57.37
2024-03-28T12:43:09.460Z,57.43
2024-03-28T12:44:09.475Z,57.38
2024-03-28T12:45:13.967Z,57.41
2024-03-28T12:46:10.419Z,57.51
2024-03-28T12:47:09.438Z,57.45
2024-03-28T12:48:09.401Z,57.14
2024-03-28T12:49:09.432Z,57.14
2024-03-28T12:50:09.384Z,57.20
2024-03-28T12:51:09.366Z,57.11
2024-03-28T12:52:09.385Z,57.08
2024-03-28T12:53:09.374Z,57.07
2024-03-28T12:54:09.326Z,57.33